ENTC/TOS METAR and TAF weather

Enter ICAO airport designator
Station Type Date Time Source
ENTC METAR 2018/10/19 15:20 UTC NOAA

ENTC 191520Z 29006KT 9999 SCT013 BKN023 06/04 Q1013 RMK WIND 2600FT 25013KT


Station Type Date Time Source
ENTC Decoded METAR 2018/10/19 15:20 UTC NOAA

Tromso / Langnes, Norway (ENTC) 69-41N 018-55E 10M
Oct 19, 2018 - 11:20 AM EDT / 2018.10.19 1520 UTC
Wind: from the WNW (290 degrees) at 7 MPH (6 KT):0
Visibility: greater than 7 mile(s):0
Sky conditions: mostly cloudy
Temperature: 42 F (6 C)
Dew Point: 39 F (4 C)
Relative Humidity: 86%
Pressure (altimeter): 29.91 in. Hg (1013 hPa)
ob: ENTC 191520Z 29006KT 9999 SCT013 BKN023 06/04 Q1013 RMK WIND 2600FT 25013KT
cycle: 15

Station Type Date Time Source
ENTC TAF 2018/10/19 15:30 UTC NOAA

TAF
AMD ENTC 191527Z 1915/2012 22008KT 9999 -SHRA FEW015TCU BKN025
TEMPO 1915/1921 BKN014


Example: see airport list